createdAt,value
2018-08-24T00:00:09.208Z,74.80
2018-08-24T00:02:39.497Z,74.80
2018-08-24T00:05:09.444Z,74.90
2018-08-24T00:07:39.409Z,74.90
2018-08-24T00:10:09.598Z,74.80
2018-08-24T00:12:39.343Z,74.70
2018-08-24T00:15:09.314Z,74.60
2018-08-24T00:17:39.617Z,74.40
2018-08-24T00:20:09.249Z,73.90
2018-08-24T00:22:38.990Z,73.80
2018-08-24T00:25:09.477Z,74.20
2018-08-24T00:27:39.179Z,73.80
2018-08-24T00:30:10.166Z,73.90
2018-08-24T00:32:40.513Z,73.90
2018-08-24T00:35:10.170Z,73.80
2018-08-24T00:37:40.134Z,73.70
2018-08-24T00:40:10.310Z,73.60
2018-08-24T00:42:40.139Z,73.70
2018-08-24T00:45:10.170Z,73.80
2018-08-24T00:47:40.040Z,73.60
2018-08-24T00:50:09.897Z,73.80
2018-08-24T00:52:40.325Z,73.90
2018-08-24T00:55:10.646Z,73.70
2018-08-24T00:57:40.411Z,73.60
2018-08-24T01:00:10.443Z,73.50
2018-08-24T01:02:40.528Z,73.60
2018-08-24T01:05:10.561Z,73.40
2018-08-24T01:07:45.652Z,73.40
2018-08-24T01:10:20.614Z,73.40
2018-08-24T01:12:51.000Z,73.40
2018-08-24T01:15:20.866Z,73.10
2018-08-24T01:18:23.671Z,72.70
2018-08-24T01:20:55.567Z,72.70
2018-08-24T01:23:26.702Z,73.00
2018-08-24T01:25:56.682Z,73.10
2018-08-24T01:28:28.965Z,73.10
2018-08-24T01:31:09.305Z,73.00
2018-08-24T01:33:39.449Z,72.90
2018-08-24T01:36:09.189Z,72.90
2018-08-24T01:38:39.012Z,73.10
2018-08-24T01:41:09.525Z,72.80
2018-08-24T01:43:39.095Z,72.80
2018-08-24T01:46:10.448Z,72.70
2018-08-24T01:48:41.193Z,72.70
2018-08-24T01:51:10.957Z,72.70
2018-08-24T01:53:40.839Z,72.70
2018-08-24T01:56:11.221Z,72.90
2018-08-24T01:58:40.891Z,73.10
2018-08-24T02:01:10.574Z,73.00
2018-08-24T02:03:40.899Z,72.90
2018-08-24T02:06:10.513Z,73.00
2018-08-24T02:08:40.431Z,72.90
2018-08-24T02:11:15.465Z,72.70
2018-08-24T02:13:50.115Z,72.40
2018-08-24T02:16:20.323Z,72.40
2018-08-24T02:18:55.433Z,72.50
2018-08-24T02:21:30.744Z,73.40
2018-08-24T02:24:01.547Z,72.90
2018-08-24T02:26:31.654Z,72.90
2018-08-24T02:29:01.673Z,72.90
2018-08-24T02:31:40.438Z,72.90
2018-08-24T02:34:10.708Z,72.90
2018-08-24T02:36:41.016Z,72.90
2018-08-24T02:39:16.713Z,72.90
2018-08-24T02:41:46.755Z,72.80
2018-08-24T02:44:16.907Z,72.70
2018-08-24T02:46:47.233Z,72.40
2018-08-24T02:49:17.199Z,72.40
2018-08-24T02:51:47.169Z,72.30
2018-08-24T02:54:17.034Z,72.30
2018-08-24T02:56:47.255Z,72.00
2018-08-24T02:59:17.157Z,72.10
2018-08-24T03:01:47.053Z,72.10
2018-08-24T03:04:17.438Z,72.10
2018-08-24T03:06:47.490Z,72.30
2018-08-24T03:09:17.488Z,72.10
2018-08-24T03:11:47.552Z,72.10
2018-08-24T03:14:17.602Z,72.20
2018-08-24T03:16:53.064Z,72.10
2018-08-24T03:19:23.885Z,72.10
2018-08-24T03:21:53.947Z,72.10
2018-08-24T03:24:24.855Z,72.30
2018-08-24T03:26:54.950Z,72.30
2018-08-24T03:29:25.198Z,72.50
2018-08-24T03:31:56.075Z,72.60
2018-08-24T03:34:26.463Z,72.90
2018-08-24T03:36:56.834Z,72.20
2018-08-24T03:39:26.788Z,71.20
2018-08-24T03:41:56.804Z,71.30
2018-08-24T03:44:26.933Z,70.90
2018-08-24T03:46:56.687Z,71.00
2018-08-24T03:49:26.740Z,71.10
2018-08-24T03:51:57.086Z,70.70
2018-08-24T03:54:27.005Z,71.20
2018-08-24T03:56:58.135Z,71.30
2018-08-24T03:59:28.226Z,71.50
2018-08-24T04:01:58.166Z,71.50
2018-08-24T04:04:27.856Z,71.50
2018-08-24T04:06:58.364Z,71.70
2018-08-24T04:09:28.340Z,71.70
2018-08-24T04:11:58.349Z,71.20
2018-08-24T04:14:28.429Z,71.70
2018-08-24T04:17:03.314Z,71.60
2018-08-24T04:19:33.803Z,71.80
2018-08-24T04:22:03.875Z,71.80
2018-08-24T04:24:33.844Z,71.70
2018-08-24T04:27:04.287Z,72.30
2018-08-24T04:29:34.240Z,72.50
2018-08-24T04:32:04.941Z,72.40
2018-08-24T04:34:35.164Z,72.60
2018-08-24T04:37:05.083Z,72.60
2018-08-24T04:39:34.882Z,72.80
2018-08-24T04:42:04.949Z,72.90
2018-08-24T04:44:34.837Z,72.70
2018-08-24T04:47:04.775Z,72.70
2018-08-24T04:49:34.982Z,72.90
2018-08-24T04:52:05.006Z,73.40
2018-08-24T04:54:35.030Z,72.40
2018-08-24T04:57:05.725Z,72.00
2018-08-24T04:59:35.939Z,72.40
2018-08-24T05:02:05.854Z,72.60
2018-08-24T05:04:35.514Z,72.50
2018-08-24T05:07:05.477Z,72.20
2018-08-24T05:09:35.291Z,72.00
2018-08-24T05:12:05.545Z,72.40
2018-08-24T05:14:35.455Z,72.70
2018-08-24T05:17:05.513Z,72.90
2018-08-24T05:19:35.471Z,72.90
2018-08-24T05:22:05.509Z,72.50
2018-08-24T05:24:35.462Z,72.80
2018-08-24T05:27:05.542Z,72.30
2018-08-24T05:29:35.605Z,72.40
2018-08-24T05:32:06.278Z,72.50
2018-08-24T05:34:36.414Z,72.20
2018-08-24T05:37:06.508Z,72.90
2018-08-24T05:39:36.217Z,71.60
2018-08-24T05:42:06.273Z,72.60
2018-08-24T05:44:36.553Z,72.50
2018-08-24T05:47:06.667Z,72.70
2018-08-24T05:49:36.898Z,72.60
2018-08-24T05:52:06.764Z,72.90
2018-08-24T05:54:36.999Z,73.10
2018-08-24T05:57:07.112Z,73.40
2018-08-24T05:59:37.197Z,73.80
2018-08-24T06:02:07.516Z,74.10
2018-08-24T06:04:37.604Z,74.00
2018-08-24T06:07:07.633Z,73.60
2018-08-24T06:09:37.604Z,73.70
2018-08-24T06:12:07.838Z,73.90
2018-08-24T06:14:37.716Z,73.80
2018-08-24T06:17:12.573Z,74.30
2018-08-24T06:19:42.757Z,74.10
2018-08-24T06:22:12.721Z,74.70
2018-08-24T06:24:42.659Z,74.20
2018-08-24T06:27:13.036Z,73.90
2018-08-24T06:29:42.952Z,74.40
2018-08-24T06:32:13.382Z,74.30
2018-08-24T06:34:43.717Z,74.50
2018-08-24T06:37:13.684Z,74.50
2018-08-24T06:39:43.913Z,74.90
2018-08-24T06:42:14.278Z,74.70
2018-08-24T06:44:44.240Z,74.80
2018-08-24T06:47:14.229Z,74.70
2018-08-24T06:49:44.604Z,75.00
2018-08-24T06:52:14.649Z,75.20
2018-08-24T06:54:44.632Z,75.40
2018-08-24T06:57:15.033Z,75.40
2018-08-24T06:59:44.924Z,75.40
2018-08-24T07:02:15.242Z,75.30
2018-08-24T07:04:45.320Z,75.30
2018-08-24T07:07:15.067Z,75.20
2018-08-24T07:09:45.036Z,75.80
2018-08-24T07:12:15.756Z,75.80
2018-08-24T07:14:45.713Z,75.70
2018-08-24T07:17:19.790Z,75.80
2018-08-24T07:19:49.901Z,76.10
2018-08-24T07:22:20.130Z,75.80
2018-08-24T07:24:50.251Z,75.60
2018-08-24T07:27:20.263Z,75.00
2018-08-24T07:29:53.097Z,74.80
2018-08-24T07:32:23.584Z,74.40
2018-08-24T07:34:53.870Z,74.20
2018-08-24T07:37:24.275Z,74.10
2018-08-24T07:39:54.154Z,74.30
2018-08-24T07:42:24.602Z,74.50
2018-08-24T07:44:55.500Z,74.80
2018-08-24T07:47:25.951Z,75.10
2018-08-24T07:49:56.682Z,74.70
2018-08-24T07:52:26.988Z,75.40
2018-08-24T07:54:57.196Z,75.10
2018-08-24T07:57:27.270Z,74.70
2018-08-24T07:59:57.612Z,74.60
2018-08-24T08:02:33.111Z,75.00
2018-08-24T08:05:03.943Z,74.80
2018-08-24T08:07:33.732Z,75.10
2018-08-24T08:10:03.593Z,74.10
2018-08-24T08:12:34.066Z,73.90
2018-08-24T08:15:07.986Z,73.70
2018-08-24T08:17:38.781Z,73.50
2018-08-24T08:20:22.212Z,73.10
2018-08-24T08:23:04.197Z,73.60
2018-08-24T08:25:38.162Z,73.90
2018-08-24T08:28:12.873Z,73.80
2018-08-24T08:30:42.917Z,73.70
2018-08-24T08:33:13.578Z,74.00
2018-08-24T08:35:43.617Z,73.40
2018-08-24T08:38:13.866Z,73.20
2018-08-24T08:40:44.444Z,72.50
2018-08-24T08:43:14.719Z,72.80
2018-08-24T08:45:44.533Z,73.30
2018-08-24T08:48:14.420Z,73.20
2018-08-24T08:50:44.455Z,73.20
2018-08-24T08:53:14.390Z,73.00
2018-08-24T08:55:45.927Z,73.00
2018-08-24T08:58:16.166Z,72.80
2018-08-24T09:00:45.689Z,72.40
2018-08-24T09:03:15.639Z,72.40
2018-08-24T09:05:45.655Z,73.20
2018-08-24T09:08:15.378Z,73.40
2018-08-24T09:10:45.386Z,73.70
2018-08-24T09:13:15.703Z,73.50
2018-08-24T09:15:45.213Z,73.00
2018-08-24T09:18:20.025Z,73.10
2018-08-24T09:20:55.088Z,73.20
2018-08-24T09:23:30.348Z,73.30
2018-08-24T09:26:05.257Z,74.10
2018-08-24T09:28:38.378Z,73.80
2018-08-24T09:31:17.748Z,73.70
2018-08-24T09:33:48.392Z,72.90
2018-08-24T09:36:20.088Z,73.00
2018-08-24T09:38:51.231Z,73.00
2018-08-24T09:41:21.250Z,72.40
2018-08-24T09:43:56.200Z,72.30
2018-08-24T09:46:31.434Z,72.90
2018-08-24T09:49:06.630Z,72.40
2018-08-24T09:51:36.850Z,72.40
2018-08-24T09:54:07.669Z,72.20
2018-08-24T09:56:38.971Z,72.00
2018-08-24T09:59:08.958Z,72.00
2018-08-24T10:01:43.562Z,72.30
2018-08-24T10:04:19.565Z,72.00
2018-08-24T10:06:54.804Z,72.40
2018-08-24T10:09:25.029Z,72.40
2018-08-24T10:11:55.348Z,73.00
2018-08-24T10:14:25.315Z,73.10
2018-08-24T10:16:55.886Z,74.20
2018-08-24T10:19:26.099Z,73.70
2018-08-24T10:21:56.772Z,74.00
2018-08-24T10:24:26.916Z,73.60
2018-08-24T10:26:56.983Z,73.40
2018-08-24T10:29:27.452Z,72.50
2018-08-24T10:31:59.070Z,72.70
2018-08-24T10:34:29.565Z,72.30
2018-08-24T10:37:00.388Z,72.60
2018-08-24T10:39:30.612Z,72.40
2018-08-24T10:42:00.599Z,72.00
2018-08-24T10:44:42.956Z,72.00
2018-08-24T10:47:13.008Z,69.30
2018-08-24T10:49:43.301Z,68.30
2018-08-24T10:52:14.292Z,68.70
2018-08-24T10:54:44.528Z,68.00
2018-08-24T10:57:15.426Z,68.90
2018-08-24T10:59:45.155Z,68.10
2018-08-24T11:02:16.777Z,68.70
2018-08-24T11:04:46.919Z,69.50
2018-08-24T11:07:17.229Z,69.10
2018-08-24T11:09:47.293Z,69.40
2018-08-24T11:12:17.418Z,70.20
2018-08-24T11:14:47.726Z,69.60
2018-08-24T11:17:17.508Z,69.40
2018-08-24T11:19:47.382Z,69.70
2018-08-24T11:22:17.734Z,69.70
2018-08-24T11:24:47.727Z,69.60
2018-08-24T11:27:17.707Z,70.00
2018-08-24T11:29:57.423Z,69.80
2018-08-24T11:32:27.224Z,69.70
2018-08-24T11:35:00.038Z,69.90
2018-08-24T11:37:30.019Z,70.00
2018-08-24T11:40:01.305Z,69.70
2018-08-24T11:42:31.591Z,69.40
2018-08-24T11:45:01.255Z,69.70
2018-08-24T11:47:31.658Z,69.70
2018-08-24T11:50:02.675Z,69.10
2018-08-24T11:52:32.550Z,68.80
2018-08-24T11:55:02.446Z,68.20
2018-08-24T11:57:33.890Z,68.10
2018-08-24T12:00:03.708Z,67.40
2018-08-24T12:02:33.572Z,67.30
2018-08-24T12:05:03.851Z,67.90
2018-08-24T12:07:49.799Z,68.10
2018-08-24T12:10:20.884Z,67.00
2018-08-24T12:12:51.117Z,66.50
2018-08-24T12:15:21.371Z,66.80
2018-08-24T12:17:51.717Z,65.90
2018-08-24T12:20:21.813Z,65.70
2018-08-24T12:22:55.994Z,65.40
2018-08-24T12:25:26.424Z,65.30
2018-08-24T12:27:57.518Z,65.10
2018-08-24T12:30:27.515Z,64.90
2018-08-24T12:32:57.350Z,65.30
2018-08-24T12:35:27.786Z,65.10
2018-08-24T12:37:58.631Z,65.60
2018-08-24T12:40:28.828Z,65.30
2018-08-24T12:42:59.048Z,64.20
2018-08-24T12:45:33.460Z,64.30
2018-08-24T12:48:05.318Z,65.00
2018-08-24T12:50:35.105Z,64.00
2018-08-24T12:53:05.075Z,62.80
2018-08-24T12:55:34.887Z,63.90
2018-08-24T12:58:05.609Z,64.80
2018-08-24T13:00:35.754Z,66.40
2018-08-24T13:03:28.676Z,66.00
2018-08-24T13:05:58.338Z,65.80
2018-08-24T13:08:28.160Z,62.30
2018-08-24T13:10:58.420Z,61.90
2018-08-24T13:13:28.074Z,62.10
2018-08-24T13:15:58.329Z,61.50
2018-08-24T13:18:28.336Z,62.20
2018-08-24T13:20:58.236Z,62.30
2018-08-24T13:23:28.741Z,62.90
2018-08-24T13:25:58.973Z,62.60
2018-08-24T13:28:28.582Z,64.70
2018-08-24T13:30:58.865Z,63.40
2018-08-24T13:33:28.674Z,61.20
2018-08-24T13:35:59.360Z,63.30
2018-08-24T13:38:29.370Z,62.00
2018-08-24T13:40:59.124Z,62.40
2018-08-24T13:43:31.490Z,62.30
2018-08-24T13:46:01.694Z,60.90
2018-08-24T13:48:31.643Z,59.30
2018-08-24T13:51:01.479Z,58.40
2018-08-24T13:53:31.549Z,60.20
2018-08-24T13:56:01.697Z,59.40
2018-08-24T13:58:31.632Z,59.20
2018-08-24T14:01:01.898Z,57.20
2018-08-24T14:03:59.292Z,57.00
2018-08-24T14:06:29.401Z,58.10
2018-08-24T14:08:59.813Z,57.80
2018-08-24T14:11:29.840Z,58.40
2018-08-24T20:05:36.284Z,63.00
2018-08-24T20:08:11.095Z,63.30
2018-08-24T20:10:40.912Z,63.80
2018-08-24T20:13:10.213Z,63.80
2018-08-24T20:15:45.173Z,63.90
2018-08-24T20:18:14.851Z,64.70
2018-08-24T20:20:45.210Z,64.80
2018-08-24T20:23:14.872Z,64.30
2018-08-24T20:25:44.490Z,64.60
2018-08-24T20:28:14.547Z,64.40
2018-08-24T20:30:43.974Z,64.60
2018-08-24T20:33:13.703Z,64.50
2018-08-24T20:35:43.319Z,65.00
2018-08-24T20:38:12.910Z,64.90
2018-08-24T20:40:42.783Z,65.30
2018-08-24T20:43:12.430Z,65.60
2018-08-24T20:45:42.070Z,66.20
2018-08-24T20:48:12.341Z,65.90
2018-08-24T20:50:41.750Z,65.80
2018-08-24T20:53:11.389Z,65.60
2018-08-24T20:55:41.428Z,65.60
2018-08-24T20:58:11.219Z,65.30
2018-08-24T21:00:41.692Z,65.30
2018-08-24T21:03:11.395Z,65.40
2018-08-24T21:05:41.576Z,65.70
2018-08-24T21:08:11.292Z,65.80
2018-08-24T21:10:40.995Z,66.00
2018-08-24T21:13:10.680Z,66.00
2018-08-24T21:15:40.639Z,66.30
2018-08-24T21:18:10.273Z,66.80
2018-08-24T21:20:39.907Z,67.10
2018-08-24T21:23:10.079Z,67.40
2018-08-24T21:25:39.634Z,67.80
2018-08-24T21:28:09.003Z,67.70
2018-08-24T21:30:39.214Z,68.20
2018-08-24T21:33:08.762Z,68.10
2018-08-24T21:35:39.062Z,68.10
2018-08-24T21:38:09.226Z,68.30
2018-08-24T21:40:38.787Z,67.80
2018-08-24T21:43:08.443Z,67.90
2018-08-24T21:45:38.500Z,68.00
2018-08-24T21:48:07.867Z,68.30
2018-08-24T21:50:37.439Z,68.10
2018-08-24T21:53:07.501Z,67.80
2018-08-24T21:55:37.191Z,68.60
2018-08-24T21:58:07.246Z,68.20
2018-08-24T22:00:42.550Z,68.50
2018-08-24T22:03:13.393Z,68.60
2018-08-24T22:05:43.618Z,68.50
2018-08-24T22:08:13.521Z,68.60
2018-08-24T22:10:43.309Z,68.60
2018-08-24T22:13:13.454Z,68.60
2018-08-24T22:15:42.909Z,68.30
2018-08-24T22:18:12.714Z,68.20
2018-08-24T22:20:42.380Z,68.10
2018-08-24T22:23:11.781Z,68.30
2018-08-24T22:25:41.292Z,68.30
2018-08-24T22:28:11.458Z,68.40
2018-08-24T22:30:40.973Z,68.40
2018-08-24T22:33:10.619Z,68.40
2018-08-24T22:35:40.739Z,68.40
2018-08-24T22:38:10.333Z,68.50
2018-08-24T22:40:39.963Z,68.40
2018-08-24T22:43:40.645Z,68.20
2018-08-24T22:46:10.284Z,68.10
2018-08-24T22:48:40.692Z,68.10
2018-08-24T22:51:10.636Z,68.20
2018-08-24T22:53:40.356Z,67.80
2018-08-24T22:56:10.362Z,68.00
2018-08-24T22:58:40.067Z,68.00
2018-08-24T23:01:09.755Z,67.80
2018-08-24T23:03:39.657Z,67.90
2018-08-24T23:06:09.615Z,67.30
2018-08-24T23:08:39.234Z,67.90
2018-08-24T23:11:09.294Z,67.90
2018-08-24T23:13:38.850Z,67.80
2018-08-24T23:16:08.557Z,68.20
2018-08-24T23:18:38.744Z,68.40
2018-08-24T23:21:08.487Z,68.50
2018-08-24T23:23:38.278Z,68.70
2018-08-24T23:26:08.370Z,69.00
2018-08-24T23:28:37.920Z,69.20
2018-08-24T23:31:07.924Z,70.00
2018-08-24T23:33:37.548Z,69.00
2018-08-24T23:36:07.316Z,68.60
2018-08-24T23:38:36.987Z,68.30
2018-08-24T23:41:06.935Z,68.50
2018-08-24T23:43:36.604Z,68.80
2018-08-24T23:46:06.453Z,68.90
2018-08-24T23:48:36.423Z,69.20
2018-08-24T23:51:06.184Z,69.30
2018-08-24T23:53:35.743Z,69.40
2018-08-24T23:56:05.410Z,69.50
2018-08-24T23:58:35.122Z,69.70
